Time;durP1;ratioP1;P1;durP2;ratioP2;P2;SDS_P1;SDS_P2;PMS_P1;PMS_P2;Temp;Humidity;BMP_temperature;BMP_pressure;BME280_temperature;BME280_humidity;BME280_pressure;Samples;Min_cycle;Max_cycle;Signal;HPM_P1;HPM_P2
2024/04/19 00:01:19;;;;;;;1999.90;999.90;;;7.20;99.90;;;;;;5524153;26;20076;-79
2024/04/19 00:03:45;;;;;;;1999.90;999.90;;;7.10;99.90;;;;;;5523260;26;20010;-68
2024/04/19 00:06:11;;;;;;;1999.90;999.90;;;7.20;99.90;;;;;;5490592;26;19993;-69
2024/04/19 00:08:36;;;;;;;1999.90;999.90;;;7.30;99.90;;;;;;5524057;26;20001;-69
2024/04/19 00:11:02;;;;;;;1999.90;999.90;;;7.30;99.90;;;;;;5523578;26;19994;-69
2024/04/19 00:13:28;;;;;;;1999.90;999.90;;;7.20;99.90;;;;;;5523422;26;20312;-69
2024/04/19 00:15:57;;;;;;;1999.90;999.90;;;7.20;99.90;;;;;;5523524;26;19993;-79
2024/04/19 00:18:23;;;;;;;1999.90;999.90;;;7.20;99.90;;;;;;5524092;26;20008;-69
2024/04/19 00:20:48;;;;;;;1999.90;999.90;;;7.10;99.90;;;;;;5523575;26;19989;-79
2024/04/19 00:23:14;;;;;;;1999.90;999.90;;;7.00;99.90;;;;;;5523263;26;20002;-79
2024/04/19 00:25:40;;;;;;;1999.90;999.90;;;7.00;99.90;;;;;;5523491;26;19997;-69
2024/04/19 00:28:05;;;;;;;1999.90;999.90;;;7.00;99.90;;;;;;5523541;26;19994;-69
2024/04/19 00:30:31;;;;;;;1999.90;999.90;;;7.00;99.90;;;;;;5551812;25;20009;-69
2024/04/19 00:32:57;;;;;;;1999.90;999.90;;;6.90;99.90;;;;;;5560634;25;19993;-79
2024/04/19 00:35:22;;;;;;;1999.90;999.90;;;6.90;99.90;;;;;;5539344;25;20046;-69
2024/04/19 00:37:48;;;;;;;1999.90;999.90;;;6.90;99.90;;;;;;5523193;26;20005;-79
2024/04/19 00:40:14;;;;;;;1999.90;999.90;;;6.90;99.90;;;;;;5489467;26;20500;-79
2024/04/19 00:42:39;;;;;;;1999.90;999.90;;;6.90;99.90;;;;;;5525754;26;19998;-69
2024/04/19 00:45:29;;;;;;;1999.90;999.90;;;7.00;99.90;;;;;;5526876;26;20292;-69
2024/04/19 00:47:55;;;;;;;1999.90;999.90;;;6.90;99.90;;;;;;5526655;26;20436;-79
2024/04/19 00:50:22;;;;;;;1999.90;999.90;;;7.00;99.90;;;;;;5493319;26;19989;-69
2024/04/19 00:52:48;;;;;;;1999.90;999.90;;;7.00;99.90;;;;;;5526369;26;20065;-69
2024/04/19 00:55:13;;;;;;;1999.90;999.90;;;7.00;99.90;;;;;;5525949;26;19997;-69
2024/04/19 00:57:39;;;;;;;1999.90;999.90;;;7.00;99.90;;;;;;5526509;26;20441;-68
2024/04/19 01:00:08;;;;;;;1999.90;999.90;;;7.00;99.90;;;;;;5526643;26;20176;-79
2024/04/19 01:02:35;;;;;;;1999.90;999.90;;;7.10;99.90;;;;;;5526408;26;19998;-79
2024/04/19 01:05:01;;;;;;;1999.90;999.90;;;7.00;99.90;;;;;;5526415;26;20004;-69
2024/04/19 01:07:27;;;;;;;1999.90;999.90;;;7.00;99.90;;;;;;5524439;26;19993;-69
2024/04/19 01:09:53;;;;;;;1999.90;999.90;;;7.00;99.90;;;;;;5526420;26;20008;-69
2024/04/19 01:12:19;;;;;;;1999.90;999.90;;;7.00;99.90;;;;;;5526044;26;19997;-79
2024/04/19 01:14:45;;;;;;;1999.90;999.90;;;7.10;99.90;;;;;;5526665;26;20142;-69
2024/04/19 01:17:11;;;;;;;1999.90;999.90;;;7.10;99.90;;;;;;5526361;26;20005;-77
2024/04/19 01:19:37;;;;;;;1999.90;999.90;;;7.10;99.90;;;;;;5493586;26;20345;-69
2024/04/19 01:22:04;;;;;;;1999.90;999.90;;;7.10;99.90;;;;;;5526645;26;20068;-69
2024/04/19 01:24:44;;;;;;;1999.90;999.90;;;7.00;99.90;;;;;;5526489;26;20081;-69
2024/04/19 01:27:10;;;;;;;1999.90;999.90;;;7.00;99.90;;;;;;5526511;26;20393;-79
2024/04/19 01:29:36;;;;;;;1999.90;999.90;;;7.00;99.90;;;;;;5526237;26;20016;-79
2024/04/19 01:32:03;;;;;;;1999.90;999.90;;;6.90;99.90;;;;;;5524059;26;20443;-69
2024/04/19 01:34:29;;;;;;;1999.90;999.90;;;6.80;99.90;;;;;;5525980;25;20016;-69
2024/04/19 01:36:55;;;;;;;1999.90;999.90;;;6.80;99.90;;;;;;5524606;26;19997;-79
2024/04/19 01:39:21;;;;;;;1999.90;999.90;;;6.80;99.90;;;;;;5525420;26;20395;-79
2024/04/19 01:41:46;;;;;;;1999.90;999.90;;;6.80;99.90;;;;;;5525685;26;19993;-79
2024/04/19 01:44:13;;;;;;;1999.90;999.90;;;6.80;99.90;;;;;;5525667;26;19990;-69
2024/04/19 01:46:38;;;;;;;1999.90;999.90;;;6.80;99.90;;;;;;5525990;26;20008;-69
2024/04/19 01:49:04;;;;;;;1999.90;999.90;;;6.80;99.90;;;;;;5526006;26;20337;-69
2024/04/19 01:51:30;;;;;;;1999.90;999.90;;;6.80;99.90;;;;;;5525950;26;20070;-78
2024/04/19 01:53:55;;;;;;;1999.90;999.90;;;6.80;99.90;;;;;;5524302;26;20065;-69
2024/04/19 01:56:21;;;;;;;1999.90;999.90;;;6.80;99.90;;;;;;5525321;26;20012;-69
2024/04/19 01:58:47;;;;;;;1999.90;999.90;;;6.70;99.90;;;;;;5525518;26;20126;-69
2024/04/19 02:01:12;;;;;;;1999.90;999.90;;;6.80;99.90;;;;;;5525541;26;20514;-69
2024/04/19 02:03:38;;;;;;;1999.90;999.90;;;6.70;99.90;;;;;;5525368;26;19993;-69
2024/04/19 02:06:08;;;;;;;1999.90;999.90;;;6.70;99.90;;;;;;5525650;26;20455;-69
2024/04/19 02:08:34;;;;;;;1999.90;999.90;;;6.80;99.90;;;;;;5525681;26;20460;-79
2024/04/19 02:11:01;;;;;;;1999.90;999.90;;;6.70;99.90;;;;;;5462619;26;20080;-69
2024/04/19 02:13:27;;;;;;;1999.90;999.90;;;6.70;99.90;;;;;;5525673;26;20196;-69
2024/04/19 02:15:53;;;;;;;1999.90;999.90;;;6.60;99.90;;;;;;5525718;26;19997;-68
2024/04/19 02:18:18;;;;;;;1999.90;999.90;;;6.60;99.90;;;;;;5525364;26;19989;-69
2024/04/19 02:20:44;;;;;;;1999.90;999.90;;;6.50;99.90;;;;;;5525241;26;20009;-69
2024/04/19 02:23:10;;;;;;;1999.90;999.90;;;6.50;99.90;;;;;;5524865;26;19998;-69
2024/04/19 02:25:36;;;;;;;1999.90;999.90;;;6.40;99.90;;;;;;5525275;26;20008;-79
2024/04/19 02:30:54;;;;;;;1999.90;999.90;;;6.40;99.90;;;;;;5525316;26;20087;-79
2024/04/19 02:33:21;;;;;;;1999.90;999.90;;;6.40;99.90;;;;;;5525154;25;20061;-69
2024/04/19 02:35:46;;;;;;;1999.90;999.90;;;6.40;99.90;;;;;;5524927;25;20011;-69
2024/04/19 02:38:12;;;;;;;1999.90;999.90;;;6.40;99.90;;;;;;5524994;26;19989;-68
2024/04/19 02:40:37;;;;;;;1999.90;999.90;;;6.40;99.90;;;;;;5525306;26;20008;-69
2024/04/19 02:43:03;;;;;;;1999.90;999.90;;;6.40;99.90;;;;;;5525325;26;20023;-79
2024/04/19 02:45:29;;;;;;;1999.90;999.90;;;6.40;99.90;;;;;;5525606;26;20065;-79
2024/04/19 02:47:54;;;;;;;1999.90;999.90;;;6.30;99.90;;;;;;5525297;26;19989;-68
2024/04/19 02:50:20;;;;;;;1999.90;999.90;;;6.30;99.90;;;;;;5525463;26;20005;-79
2024/04/19 02:52:46;;;;;;;1999.90;999.90;;;6.30;99.90;;;;;;5525429;26;20323;-69
2024/04/19 02:55:11;;;;;;;1999.90;999.90;;;6.20;99.90;;;;;;5525794;26;20004;-69
2024/04/19 02:57:37;;;;;;;1999.90;999.90;;;6.20;99.90;;;;;;5524981;26;20025;-79
2024/04/19 03:00:04;;;;;;;1999.90;999.90;;;6.20;99.90;;;;;;5526065;26;20075;-79
2024/04/19 03:02:29;;;;;;;1999.90;999.90;;;6.20;99.90;;;;;;5524147;26;19997;-69
2024/04/19 03:04:55;;;;;;;1999.90;999.90;;;6.20;99.90;;;;;;5524490;26;20074;-69
2024/04/19 03:07:20;;;;;;;1999.90;999.90;;;6.30;99.90;;;;;;5524435;26;20004;-69
2024/04/19 03:09:49;;;;;;;1999.90;999.90;;;6.30;99.90;;;;;;5525063;26;20068;-79
2024/04/19 03:12:14;;;;;;;1999.90;999.90;;;6.30;99.90;;;;;;5524882;26;20000;-78
2024/04/19 03:14:40;;;;;;;1999.90;999.90;;;6.20;99.90;;;;;;5525118;26;19993;-69
2024/04/19 03:17:06;;;;;;;1999.90;999.90;;;6.20;99.90;;;;;;5492479;26;20025;-69
2024/04/19 03:19:31;;;;;;;1999.90;999.90;;;6.20;99.90;;;;;;5524561;26;20319;-69
2024/04/19 03:21:57;;;;;;;1999.90;999.90;;;6.20;99.90;;;;;;5524568;26;20013;-69
2024/04/19 03:24:22;;;;;;;1999.90;999.90;;;6.20;99.90;;;;;;5524747;26;20005;-79
2024/04/19 03:26:48;;;;;;;1999.90;999.90;;;6.20;99.90;;;;;;5524400;26;20099;-78
2024/04/19 03:29:14;;;;;;;1999.90;999.90;;;6.20;99.90;;;;;;5524481;26;20532;-79
2024/04/19 03:31:39;;;;;;;1999.90;999.90;;;6.20;99.90;;;;;;5524343;26;20008;-79
2024/04/19 03:34:05;;;;;;;1999.90;999.90;;;6.20;99.90;;;;;;5524691;25;20005;-69
2024/04/19 03:36:30;;;;;;;1999.90;999.90;;;6.30;99.90;;;;;;5524337;26;20069;-79
2024/04/19 03:38:56;;;;;;;1999.90;999.90;;;6.30;99.90;;;;;;5524144;26;20001;-79
2024/04/19 03:41:22;;;;;;;1999.90;999.90;;;6.40;99.90;;;;;;5524557;26;19994;-69
2024/04/19 03:46:38;;;;;;;1999.90;999.90;;;6.50;99.90;;;;;;5471525;26;19993;-69
2024/04/19 03:49:03;;;;;;;1999.90;999.90;;;6.50;99.90;;;;;;5524009;26;20008;-69
2024/04/19 03:51:29;;;;;;;1999.90;999.90;;;6.50;99.90;;;;;;5524357;26;20308;-69
2024/04/19 03:53:54;;;;;;;1999.90;999.90;;;6.50;99.90;;;;;;5524090;26;20392;-79
2024/04/19 03:56:20;;;;;;;1999.90;999.90;;;6.40;99.90;;;;;;5522663;26;20008;-69
2024/04/19 03:58:47;;;;;;;1999.90;999.90;;;6.30;99.90;;;;;;5524174;26;19997;-69
2024/04/19 04:01:12;;;;;;;1999.90;999.90;;;6.10;99.90;;;;;;5524127;26;19989;-79
2024/04/19 04:03:38;;;;;;;1999.90;999.90;;;6.00;99.90;;;;;;5523466;26;20069;-69
2024/04/19 04:06:04;;;;;;;1999.90;999.90;;;6.00;99.90;;;;;;5524106;26;19994;-69
2024/04/19 04:08:29;;;;;;;1999.90;999.90;;;6.00;99.90;;;;;;5523492;26;19994;-69
2024/04/19 04:10:55;;;;;;;1999.90;999.90;;;6.00;99.90;;;;;;5523346;26;20396;-79
2024/04/19 04:13:21;;;;;;;1999.90;999.90;;;6.00;99.90;;;;;;5523815;26;20005;-69
2024/04/19 04:15:47;;;;;;;1999.90;999.90;;;6.00;99.90;;;;;;5522461;26;20396;-79
2024/04/19 04:18:12;;;;;;;1999.90;999.90;;;6.00;99.90;;;;;;5523684;26;19997;-69
2024/04/19 04:20:38;;;;;;;1999.90;999.90;;;6.00;99.90;;;;;;5523446;26;19997;-69
2024/04/19 04:23:04;;;;;;;1999.90;999.90;;;6.10;99.90;;;;;;5523333;26;20008;-69
2024/04/19 04:25:32;;;;;;;1999.90;999.90;;;6.10;99.90;;;;;;5523424;26;20273;-68
2024/04/19 04:27:58;;;;;;;1999.90;999.90;;;6.00;99.90;;;;;;5523580;26;19999;-69
2024/04/19 04:30:23;;;;;;;1999.90;999.90;;;6.00;99.90;;;;;;5523452;26;19997;-77
2024/04/19 04:32:49;;;;;;;1999.90;999.90;;;5.90;99.90;;;;;;5523114;26;20069;-69
2024/04/19 04:35:15;;;;;;;1999.90;999.90;;;5.90;99.90;;;;;;5523427;25;20009;-69
2024/04/19 04:37:40;;;;;;;1999.90;999.90;;;5.90;99.90;;;;;;5523221;26;19998;-79
2024/04/19 04:40:06;;;;;;;1999.90;999.90;;;5.90;99.90;;;;;;5523627;26;20425;-79
2024/04/19 04:42:32;;;;;;;1999.90;999.90;;;5.90;99.90;;;;;;5523534;26;20349;-79
2024/04/19 04:44:57;;;;;;;1999.90;999.90;;;5.90;99.90;;;;;;5523504;26;19990;-79
2024/04/19 04:47:23;;;;;;;1999.90;999.90;;;5.90;99.90;;;;;;5523489;26;20004;-69
2024/04/19 04:49:49;;;;;;;1999.90;999.90;;;5.90;99.90;;;;;;5523280;26;20061;-68
2024/04/19 04:52:15;;;;;;;1999.90;999.90;;;5.80;99.90;;;;;;5523161;26;19997;-78
2024/04/19 04:54:40;;;;;;;1999.90;999.90;;;5.70;99.90;;;;;;5523141;26;20389;-77
2024/04/19 04:57:07;;;;;;;1999.90;999.90;;;5.70;99.90;;;;;;5522255;26;20028;-79
2024/04/19 04:59:34;;;;;;;1999.90;999.90;;;5.70;99.90;;;;;;5523617;26;19990;-78
2024/04/19 05:02:00;;;;;;;1999.90;999.90;;;5.70;99.90;;;;;;5490233;26;19997;-78
2024/04/19 05:04:26;;;;;;;1999.90;999.90;;;5.80;99.90;;;;;;5522855;26;20070;-68
2024/04/19 05:06:54;;;;;;;1999.90;999.90;;;5.90;99.90;;;;;;5523027;26;20004;-79
2024/04/19 05:09:20;;;;;;;1999.90;999.90;;;6.00;99.90;;;;;;5522868;26;20308;-78
2024/04/19 05:11:46;;;;;;;1999.90;999.90;;;6.10;99.90;;;;;;5522878;26;19997;-69
2024/04/19 05:14:12;;;;;;;1999.90;999.90;;;6.20;99.90;;;;;;5522974;26;19994;-69
2024/04/19 05:16:40;;;;;;;1999.90;999.90;;;6.30;99.90;;;;;;5522909;26;20001;-69
2024/04/19 05:19:05;;;;;;;1999.90;999.90;;;6.30;99.90;;;;;;5522982;26;20002;-68
2024/04/19 05:21:31;;;;;;;1999.90;999.90;;;6.20;99.90;;;;;;5522688;26;20298;-78
2024/04/19 05:23:57;;;;;;;1999.90;999.90;;;6.20;99.90;;;;;;5522448;26;20433;-79
2024/04/19 05:26:22;;;;;;;1999.90;999.90;;;6.20;99.90;;;;;;5522180;26;20005;-68
2024/04/19 05:28:48;;;;;;;1999.90;999.90;;;6.10;99.90;;;;;;5525248;26;20407;-69
2024/04/19 05:31:14;;;;;;;1999.90;999.90;;;6.10;99.90;;;;;;5526333;26;20005;-68
2024/04/19 05:33:39;;;;;;;1999.90;999.90;;;6.10;99.90;;;;;;5525570;26;20001;-79
2024/04/19 05:36:05;;;;;;;1999.90;999.90;;;6.10;99.90;;;;;;5524314;25;20059;-69
2024/04/19 05:38:31;;;;;;;1999.90;999.90;;;6.20;99.90;;;;;;5524623;26;20065;-68
2024/04/19 05:40:57;;;;;;;1999.90;999.90;;;6.30;99.90;;;;;;5525038;26;20002;-68
2024/04/19 05:43:22;;;;;;;1999.90;999.90;;;6.30;99.90;;;;;;5493550;26;20326;-69
2024/04/19 05:45:48;;;;;;;1999.90;999.90;;;6.30;99.90;;;;;;5525633;26;19997;-79
2024/04/19 05:48:14;;;;;;;1999.90;999.90;;;6.30;99.90;;;;;;5525724;26;20008;-78
2024/04/19 05:50:40;;;;;;;1999.90;999.90;;;6.40;99.90;;;;;;5523352;26;20008;-79
2024/04/19 05:53:05;;;;;;;1999.90;999.90;;;6.40;99.90;;;;;;5471836;26;20005;-69
2024/04/19 05:55:31;;;;;;;1999.90;999.90;;;6.50;99.90;;;;;;5503635;26;19997;-69
2024/04/19 05:57:56;;;;;;;1999.90;999.90;;;6.50;99.90;;;;;;5513946;25;19997;-69
2024/04/19 06:00:22;;;;;;;1999.90;999.90;;;6.60;99.90;;;;;;5531251;25;20358;-78
2024/04/19 06:02:48;;;;;;;1999.90;999.90;;;6.70;99.90;;;;;;5517912;25;20012;-69
2024/04/19 06:05:14;;;;;;;1999.90;999.90;;;6.80;99.90;;;;;;5519805;26;20071;-68
2024/04/19 06:07:39;;;;;;;1999.90;999.90;;;6.80;99.90;;;;;;5524758;26;20361;-79
2024/04/19 06:10:06;;;;;;;1999.90;999.90;;;6.90;99.90;;;;;;5524568;26;20448;-78
2024/04/19 06:12:34;;;;;;;1999.90;999.90;;;7.00;99.90;;;;;;5538239;25;19993;-78
2024/04/19 06:15:00;;;;;;;1999.90;999.90;;;7.00;99.90;;;;;;5529733;25;20030;-79
2024/04/19 06:17:25;;;;;;;1999.90;999.90;;;7.00;99.90;;;;;;5524466;26;20001;-69
2024/04/19 06:19:51;;;;;;;1999.90;999.90;;;7.10;99.90;;;;;;5491432;26;20004;-78
2024/04/19 06:22:17;;;;;;;1999.90;999.90;;;7.20;99.90;;;;;;5524241;26;20069;-69
2024/04/19 06:24:42;;;;;;;1999.90;999.90;;;7.30;99.90;;;;;;5523556;26;20001;-78
2024/04/19 06:27:08;;;;;;;1999.90;999.90;;;7.50;99.90;;;;;;5524073;26;20012;-78
2024/04/19 06:29:33;;;;;;;1999.90;999.90;;;7.70;99.90;;;;;;5538021;25;20104;-78
2024/04/19 06:32:00;;;;;;;1999.90;999.90;;;7.80;99.90;;;;;;5527065;25;19997;-69
2024/04/19 06:34:25;;;;;;;1999.90;999.90;;;8.00;99.90;;;;;;5521511;25;20052;-69
2024/04/19 06:36:51;;;;;;;1999.90;999.90;;;8.10;99.90;;;;;;5490710;26;20505;-69
2024/04/19 06:39:26;;;;;;;1999.90;999.90;;;8.30;99.90;;;;;;5522504;26;20007;-79
2024/04/19 06:41:57;;;;;;;1999.90;999.90;;;8.40;99.90;;;;;;5523746;26;19998;-79
2024/04/19 06:44:23;;;;;;;1999.90;999.90;;;8.60;99.90;;;;;;5523611;26;19993;-71
2024/04/19 06:46:48;;;;;;;1999.90;999.90;;;8.80;99.90;;;;;;5520126;26;20008;-68
2024/04/19 06:49:14;;;;;;;1999.90;999.90;;;9.00;99.90;;;;;;5522507;26;20001;-68
2024/04/19 06:51:39;;;;;;;1999.90;999.90;;;9.10;99.90;;;;;;5523753;26;20001;-79
2024/04/19 06:54:05;;;;;;;1999.90;999.90;;;9.30;99.90;;;;;;5523306;26;20026;-77
2024/04/19 06:56:31;;;;;;;1999.90;999.90;;;9.50;99.90;;;;;;5521488;26;20511;-69
2024/04/19 06:58:56;;;;;;;1999.90;999.90;;;9.70;99.90;;;;;;5524123;26;20428;-78
2024/04/19 07:01:23;;;;;;;1999.90;999.90;;;9.90;99.90;;;;;;5523094;26;20002;-69
2024/04/19 07:03:51;;;;;;;1999.90;999.90;;;10.10;99.90;;;;;;5490600;26;20441;-78
2024/04/19 07:06:16;;;;;;;1999.90;999.90;;;10.30;99.90;;;;;;5505312;26;20009;-78
2024/04/19 07:08:42;;;;;;;1999.90;999.90;;;10.50;99.90;;;;;;5523125;26;19998;-69
2024/04/19 07:11:08;;;;;;;1999.90;999.90;;;10.70;99.90;;;;;;5521735;26;20008;-68
2024/04/19 07:13:34;;;;;;;1999.90;999.90;;;10.90;99.90;;;;;;5521545;26;20057;-77
2024/04/19 07:15:59;;;;;;;1999.90;999.90;;;11.10;99.90;;;;;;5523324;26;19997;-69
2024/04/19 07:18:25;;;;;;;1999.90;999.90;;;11.20;99.90;;;;;;5523174;26;20086;-69
2024/04/19 07:20:54;;;;;;;1999.90;999.90;;;11.40;99.90;;;;;;5523907;26;20008;-77
2024/04/19 07:23:21;;;;;;;1999.90;999.90;;;11.60;99.90;;;;;;5523220;26;20535;-79
2024/04/19 07:25:47;;;;;;;1999.90;999.90;;;11.70;99.90;;;;;;5523541;26;19997;-69
2024/04/19 07:28:13;;;;;;;1999.90;999.90;;;11.80;99.90;;;;;;5522467;26;20005;-69
2024/04/19 07:30:39;;;;;;;1999.90;999.90;;;12.00;99.90;;;;;;5523213;26;19997;-69
2024/04/19 07:33:04;;;;;;;1999.90;999.90;;;12.20;99.90;;;;;;5523337;26;20020;-76
2024/04/19 07:35:31;;;;;;;1999.90;999.90;;;12.40;99.90;;;;;;5523090;25;20337;-69
2024/04/19 07:37:56;;;;;;;1999.90;999.90;;;12.50;99.90;;;;;;5522512;26;19994;-69
2024/04/19 07:40:25;;;;;;;1999.90;999.90;;;12.80;99.90;;;;;;5523102;26;20423;-77
2024/04/19 07:42:50;;;;;;;1999.90;999.90;;;13.00;99.90;;;;;;5522654;26;20110;-78
2024/04/19 07:45:19;;;;;;;1999.90;999.90;;;13.10;99.90;;;;;;5522914;26;20001;-78
2024/04/19 07:47:45;;;;;;;1999.90;999.90;;;13.30;99.90;;;;;;5523123;26;19997;-69
2024/04/19 07:50:11;;;;;;;1999.90;999.90;;;13.40;99.90;;;;;;5522834;26;20004;-70
2024/04/19 07:52:36;;;;;;;1999.90;999.90;;;13.60;99.90;;;;;;5523119;26;20284;-69
2024/04/19 07:55:02;;;;;;;1999.90;999.90;;;13.70;99.90;;;;;;5523076;26;20340;-70
2024/04/19 07:57:28;;;;;;;1999.90;999.90;;;14.00;99.90;;;;;;5521894;26;20001;-79
2024/04/19 07:59:53;;;;;;;1999.90;999.90;;;14.00;99.90;;;;;;5522951;26;20005;-70
2024/04/19 08:02:20;;;;;;;1999.90;999.90;;;14.50;99.90;;;;;;5489130;26;20038;-70
2024/04/19 08:04:46;;;;;;;1999.90;999.90;;;16.80;99.90;;;;;;5521602;26;20010;-71
2024/04/19 08:07:12;;;;;;;1999.90;999.90;;;20.80;99.90;;;;;;5522412;26;20009;-69
2024/04/19 08:09:38;;;;;;;1999.90;999.90;;;22.70;99.90;;;;;;5522485;26;20060;-68
2024/04/19 08:12:06;;;;;;;1999.90;999.90;;;20.30;99.90;;;;;;5487307;26;19998;-70
2024/04/19 08:14:33;;;;;;;1999.90;999.90;;;18.50;99.90;;;;;;5522103;26;20030;-70
2024/04/19 08:16:59;;;;;;;1999.90;999.90;;;18.70;99.90;;;;;;5521548;26;20337;-70
2024/04/19 08:19:24;;;;;;;1999.90;999.90;;;17.20;99.90;;;;;;5521264;26;20018;-70
2024/04/19 08:21:50;;;;;;;1999.90;999.90;;;15.80;99.90;;;;;;5522545;26;19997;-71
2024/04/19 08:24:16;;;;;;;1999.90;999.90;;;15.20;99.90;;;;;;5522381;26;20432;-78
2024/04/19 08:26:41;;;;;;;1999.90;999.90;;;16.40;99.90;;;;;;5522104;26;20398;-70
2024/04/19 08:29:07;;;;;;;1999.90;999.90;;;16.10;99.90;;;;;;5527928;25;20415;-70
2024/04/19 08:31:34;;;;;;;1999.90;999.90;;;15.50;99.90;;;;;;5526447;25;20012;-70
2024/04/19 08:34:00;;;;;;;1999.90;999.90;;;15.00;99.90;;;;;;5522248;26;20037;-79
2024/04/19 08:36:26;;;;;;;1999.90;999.90;;;14.70;99.90;;;;;;5521764;26;20004;-70
2024/04/19 08:38:51;;;;;;;1999.90;999.90;;;14.60;99.90;;;;;;5520349;26;19998;-70
2024/04/19 08:41:19;;;;;;;1999.90;999.90;;;14.50;99.90;;;;;;5515694;26;20001;-70
2024/04/19 08:43:45;;;;;;;1999.90;999.90;;;14.50;99.90;;;;;;5517864;26;20008;-70
2024/04/19 08:46:11;;;;;;;1999.90;999.90;;;17.30;99.90;;;;;;5458049;26;20397;-78
2024/04/19 08:48:40;;;;;;;1999.90;999.90;;;18.10;99.90;;;;;;5521517;26;20006;-71
2024/04/19 08:51:07;;;;;;;1999.90;999.90;;;17.70;99.90;;;;;;5521865;26;19998;-78
2024/04/19 08:53:33;;;;;;;1999.90;999.90;;;16.40;99.90;;;;;;5521799;26;20124;-70
2024/04/19 08:56:00;;;;;;;1999.90;999.90;;;15.20;99.90;;;;;;5520837;26;20069;-70
2024/04/19 08:58:27;;;;;;;1999.90;999.90;;;17.10;99.90;;;;;;5521594;25;20009;-69
2024/04/19 09:00:53;;;;;;;1999.90;999.90;;;21.60;99.90;;;;;;5521689;26;20321;-77
2024/04/19 09:03:18;;;;;;;1999.90;999.90;;;20.40;99.90;;;;;;5523676;26;20002;-79
2024/04/19 09:05:45;;;;;;;1999.90;999.90;;;18.80;99.90;;;;;;5523771;26;20484;-70
2024/04/19 09:08:12;;;;;;;1999.90;999.90;;;17.40;99.90;;;;;;5525029;26;20074;-71
2024/04/19 09:10:38;;;;;;;1999.90;999.90;;;19.40;99.90;;;;;;5524620;26;20741;-77
2024/04/19 09:13:03;;;;;;;1999.90;999.90;;;22.90;99.90;;;;;;5523766;26;20005;-78
2024/04/19 09:15:29;;;;;;;1999.90;999.90;;;23.80;99.90;;;;;;5524940;26;20026;-78
2024/04/19 09:17:55;;;;;;;1999.90;999.90;;;24.60;99.90;;;;;;5525024;26;20023;-79
2024/04/19 09:20:21;;;;;;;1999.90;999.90;;;26.50;99.90;;;;;;5524019;26;20001;-70
2024/04/19 09:22:47;;;;;;;1999.90;999.90;;;25.30;99.90;;;;;;5524762;26;20002;-70
2024/04/19 09:25:16;;;;;;;1999.90;999.90;;;25.50;99.90;;;;;;5525100;26;20466;-70
2024/04/19 09:27:42;;;;;;;1999.90;999.90;;;23.80;99.90;;;;;;5492204;26;20004;-70
2024/04/19 09:30:10;;;;;;;1999.90;999.90;;;24.30;99.90;;;;;;5541808;25;20013;-69
2024/04/19 09:32:36;;;;;;;1999.90;999.90;;;23.90;99.90;;;;;;5524602;26;20076;-70
2024/04/19 09:35:03;;;;;;;1999.90;999.90;;;24.00;99.90;;;;;;5522490;26;20069;-70
2024/04/19 09:37:30;;;;;;;1999.90;999.90;;;24.80;99.90;;;;;;5521169;26;20009;-69
2024/04/19 09:39:56;;;;;;;1999.90;999.90;;;21.50;99.90;;;;;;5524726;26;20369;-69
2024/04/19 09:42:23;;;;;;;1999.90;999.90;;;20.80;99.90;;;;;;5522688;26;20001;-71
2024/04/19 09:44:50;;;;;;;1999.90;999.90;;;22.50;99.90;;;;;;5524127;26;19997;-70
2024/04/19 09:47:17;;;;;;;1999.90;999.90;;;23.60;99.90;;;;;;5524085;26;20365;-69
2024/04/19 09:49:46;;;;;;;1999.90;999.90;;;22.90;99.90;;;;;;5524557;26;20004;-69
2024/04/19 09:52:23;;;;;;;1999.90;999.90;;;22.50;99.90;;;;;;5524432;26;20036;-70
2024/04/19 09:55:06;;;;;;;1999.90;999.90;;;23.90;99.90;;;;;;5524593;26;20012;-70
2024/04/19 09:57:34;;;;;;;1999.90;999.90;;;24.40;99.90;;;;;;5514981;26;20022;-70
2024/04/19 10:00:02;;;;;;;1999.90;999.90;;;23.60;99.90;;;;;;5524886;26;20000;-78
2024/04/19 10:02:30;;;;;;;1999.90;999.90;;;24.60;99.90;;;;;;5487069;26;19994;-70
2024/04/19 10:04:58;;;;;;;1999.90;999.90;;;25.20;99.90;;;;;;5523172;26;20432;-70
2024/04/19 10:07:24;;;;;;;1999.90;999.90;;;25.30;99.90;;;;;;5524217;26;20001;-78
2024/04/19 10:09:53;;;;;;;1999.90;999.90;;;24.10;99.90;;;;;;5514359;25;20474;-70
2024/04/19 10:12:19;;;;;;;1999.90;999.90;;;23.70;99.90;;;;;;5522011;25;20002;-69
2024/04/19 10:14:45;;;;;;;1999.90;999.90;;;23.60;99.90;;;;;;5514242;25;20107;-70
2024/04/19 10:17:11;;;;;;;1999.90;999.90;;;22.80;99.90;;;;;;5553688;25;20008;-70
2024/04/19 10:19:38;;;;;;;1999.90;999.90;;;22.30;99.90;;;;;;5513411;25;19998;-77
2024/04/19 10:22:04;;;;;;;1999.90;999.90;;;22.40;99.90;;;;;;5520427;26;20397;-78
2024/04/19 10:24:31;;;;;;;1999.90;999.90;;;21.70;99.90;;;;;;5524129;26;20461;-71
2024/04/19 10:26:56;;;;;;;1999.90;999.90;;;20.50;99.90;;;;;;5491044;26;19993;-71
2024/04/19 10:29:26;;;;;;;1999.90;999.90;;;20.00;99.90;;;;;;5524333;26;19997;-71
2024/04/19 10:31:53;;;;;;;1999.90;999.90;;;19.50;99.90;;;;;;5523799;26;20011;-80
2024/04/19 10:34:21;;;;;;;1999.90;999.90;;;18.90;99.90;;;;;;5491520;25;20365;-79
2024/04/19 10:36:47;;;;;;;1999.90;999.90;;;19.10;99.90;;;;;;5523554;26;20459;-71
2024/04/19 10:39:13;;;;;;;1999.90;999.90;;;19.30;99.90;;;;;;5490631;26;19997;-70
2024/04/19 10:41:53;;;;;;;1999.90;999.90;;;19.00;99.90;;;;;;5523617;26;20001;-79
2024/04/19 10:44:19;;;;;;;1999.90;999.90;;;18.30;99.90;;;;;;5489646;26;20012;-78
2024/04/19 10:46:47;;;;;;;1999.90;999.90;;;18.90;99.90;;;;;;5523235;26;20061;-79
2024/04/19 10:49:15;;;;;;;1999.90;999.90;;;19.20;99.90;;;;;;5523653;26;20085;-79
2024/04/19 10:51:41;;;;;;;1999.90;999.90;;;19.10;99.90;;;;;;5486483;26;20002;-80
2024/04/19 10:54:07;;;;;;;1999.90;999.90;;;18.90;99.90;;;;;;5520144;26;20012;-78
2024/04/19 10:56:35;;;;;;;1999.90;999.90;;;18.50;99.90;;;;;;5520949;26;20013;-71
2024/04/19 10:59:01;;;;;;;1999.90;999.90;;;18.60;99.90;;;;;;5521215;26;20001;-79
2024/04/19 11:01:28;;;;;;;1999.90;999.90;;;18.20;99.90;;;;;;5521337;26;20017;-79
2024/04/19 11:03:54;;;;;;;1999.90;999.90;;;18.30;99.90;;;;;;5520962;26;20008;-70
2024/04/19 11:06:19;;;;;;;1999.90;999.90;;;18.50;99.90;;;;;;5521027;26;20002;-79
2024/04/19 11:08:45;;;;;;;1999.90;999.90;;;18.60;99.90;;;;;;5521540;26;20042;-71
2024/04/19 11:11:11;;;;;;;1999.90;999.90;;;18.90;99.90;;;;;;5488047;26;19997;-79
2024/04/19 11:13:37;;;;;;;1999.90;999.90;;;19.20;99.90;;;;;;5521682;26;20013;-78
2024/04/19 11:16:03;;;;;;;1999.90;999.90;;;20.20;99.90;;;;;;5513156;26;20427;-71
2024/04/19 11:18:29;;;;;;;1999.90;999.90;;;20.10;99.90;;;;;;5521616;26;20022;-70
2024/04/19 11:20:54;;;;;;;1999.90;999.90;;;20.00;99.90;;;;;;5487443;26;20019;-71
2024/04/19 11:23:20;;;;;;;1999.90;999.90;;;19.90;99.90;;;;;;5520944;26;20030;-78
2024/04/19 11:25:46;;;;;;;1999.90;999.90;;;20.70;99.90;;;;;;5520776;26;20005;-80
2024/04/19 11:28:12;;;;;;;1999.90;999.90;;;21.00;99.90;;;;;;5521373;26;20072;-70
2024/04/19 11:30:38;;;;;;;1999.90;999.90;;;20.40;99.90;;;;;;5491902;26;20065;-70
2024/04/19 11:33:13;;;;;;;1999.90;999.90;;;19.40;99.90;;;;;;5513323;26;20012;-70
2024/04/19 11:35:43;;;;;;;1999.90;999.90;;;18.90;99.90;;;;;;5517886;25;20015;-70
2024/04/19 11:38:16;;;;;;;1999.90;999.90;;;18.10;99.90;;;;;;5513634;26;20025;-79
2024/04/19 11:40:43;;;;;;;1999.90;999.90;;;17.90;99.90;;;;;;5522817;26;20005;-71
2024/04/19 11:43:09;;;;;;;1999.90;999.90;;;17.60;99.90;;;;;;5512187;26;19997;-70
2024/04/19 11:45:35;;;;;;;1999.90;999.90;;;17.50;99.90;;;;;;5521918;26;19997;-71
2024/04/19 11:48:01;;;;;;;1999.90;999.90;;;17.70;99.90;;;;;;5522961;26;20437;-69
2024/04/19 11:50:27;;;;;;;1999.90;999.90;;;18.20;99.90;;;;;;5490657;26;20003;-70
2024/04/19 11:52:52;;;;;;;1999.90;999.90;;;18.40;99.90;;;;;;5489624;26;20001;-80
2024/04/19 11:55:19;;;;;;;1999.90;999.90;;;18.40;99.90;;;;;;5522281;26;20005;-79
2024/04/19 11:57:44;;;;;;;1999.90;999.90;;;18.50;99.90;;;;;;5522388;26;20417;-79
2024/04/19 12:00:12;;;;;;;1999.90;999.90;;;18.60;99.90;;;;;;5523544;26;19998;-70
2024/04/19 12:02:38;;;;;;;1999.90;999.90;;;18.30;99.90;;;;;;5521647;26;20008;-76
2024/04/19 12:05:04;;;;;;;1999.90;999.90;;;18.30;99.90;;;;;;5520925;26;20045;-77